Time;durP1;ratioP1;P1;durP2;ratioP2;P2;SDS_P1;SDS_P2;PMS_P1;PMS_P2;Temp;Humidity;BMP_temperature;BMP_pressure;BME280_temperature;BME280_humidity;BME280_pressure;Samples;Min_cycle;Max_cycle;Signal;HPM_P1;HPM_P2
2023/01/13 00:01:04;;;;;;;2.97;1.90;;;18.50;55.60;;;;;;4856444;29;20177;-85
2023/01/13 00:03:31;;;;;;;4.65;1.75;;;18.40;55.70;;;;;;4857993;29;20208;-84
2023/01/13 00:05:58;;;;;;;4.13;1.85;;;18.40;55.70;;;;;;4928397;29;20186;-84
2023/01/13 00:08:25;;;;;;;4.85;1.92;;;18.40;55.80;;;;;;4898065;29;20262;-84
2023/01/13 00:10:53;;;;;;;4.70;2.10;;;18.40;55.70;;;;;;4912589;29;20171;-84
2023/01/13 00:13:25;;;;;;;4.95;1.85;;;18.40;55.70;;;;;;4912373;29;20186;-84
2023/01/13 00:15:57;;;;;;;5.90;1.98;;;18.40;55.70;;;;;;4950395;29;20189;-85
2023/01/13 00:18:23;;;;;;;2.60;1.80;;;18.40;55.80;;;;;;4934728;29;20180;-85
2023/01/13 00:20:58;;;;;;;2.70;2.00;;;18.30;55.70;;;;;;4912646;29;20210;-85
2023/01/13 00:23:27;;;;;;;5.28;2.30;;;18.40;55.90;;;;;;4913052;29;20182;-84
2023/01/13 00:25:56;;;;;;;2.45;1.70;;;18.40;55.90;;;;;;4913119;29;20288;-84
2023/01/13 00:28:22;;;;;;;2.58;1.80;;;18.30;56.00;;;;;;4896865;29;20202;-85
2023/01/13 00:30:48;;;;;;;2.47;1.90;;;18.30;56.00;;;;;;4912346;29;20195;-85
2023/01/13 00:33:16;;;;;;;3.00;1.70;;;18.40;55.90;;;;;;4896796;29;20258;-85
2023/01/13 00:35:43;;;;;;;5.88;2.17;;;18.40;55.90;;;;;;4912768;29;20194;-85
2023/01/13 00:38:11;;;;;;;6.22;1.92;;;18.40;55.90;;;;;;4896689;29;20174;-85
2023/01/13 00:40:43;;;;;;;3.80;1.88;;;18.40;56.00;;;;;;4912281;29;20197;-85
2023/01/13 00:43:24;;;;;;;4.90;1.92;;;18.30;55.90;;;;;;4912170;29;20178;-85
2023/01/13 00:45:50;;;;;;;4.18;1.98;;;18.30;56.00;;;;;;4903513;29;20190;-85
2023/01/13 00:48:18;;;;;;;5.18;1.60;;;18.40;56.00;;;;;;4896634;29;20194;-85
2023/01/13 00:50:46;;;;;;;3.63;2.10;;;18.40;55.90;;;;;;4884987;28;20218;-85
2023/01/13 00:53:15;;;;;;;4.40;1.90;;;18.30;55.80;;;;;;4954164;28;20165;-85
2023/01/13 00:55:44;;;;;;;3.63;2.10;;;18.40;55.90;;;;;;4938588;28;20503;-85
2023/01/13 00:58:11;;;;;;;4.35;1.80;;;18.30;56.00;;;;;;4939495;28;20176;-84
2023/01/13 01:00:44;;;;;;;3.80;1.85;;;18.30;56.30;;;;;;4954576;28;20215;-84
2023/01/13 01:03:11;;;;;;;3.63;1.83;;;18.20;56.30;;;;;;4940491;28;20731;-85
2023/01/13 01:05:41;;;;;;;8.30;2.25;;;18.30;56.40;;;;;;4953901;28;20256;-85
2023/01/13 01:08:12;;;;;;;5.00;1.83;;;18.10;56.40;;;;;;4937860;28;20208;-85
2023/01/13 01:10:39;;;;;;;2.13;1.80;;;18.20;56.40;;;;;;4970002;28;20161;-85
2023/01/13 01:13:05;;;;;;;2.58;1.83;;;18.20;56.50;;;;;;4938446;28;20160;-85
2023/01/13 01:15:33;;;;;;;3.50;2.10;;;18.20;56.60;;;;;;4954204;28;20153;-85
2023/01/13 01:18:00;;;;;;;4.13;1.73;;;18.20;57.30;;;;;;4954230;28;20161;-85
2023/01/13 01:20:27;;;;;;;2.80;1.90;;;18.10;56.60;;;;;;4911682;29;20214;-85
2023/01/13 01:22:53;;;;;;;4.10;1.88;;;18.10;56.60;;;;;;4896092;29;20253;-85
2023/01/13 01:25:20;;;;;;;3.53;1.90;;;18.10;56.70;;;;;;4896046;29;20190;-85
2023/01/13 01:27:46;;;;;;;4.05;1.90;;;18.10;56.60;;;;;;4895775;29;20194;-85
2023/01/13 01:30:13;;;;;;;5.43;2.20;;;18.10;56.50;;;;;;4896397;29;20186;-85
2023/01/13 01:32:44;;;;;;;4.65;1.90;;;18.10;56.60;;;;;;4895853;29;20218;-85
2023/01/13 01:35:12;;;;;;;4.32;1.83;;;18.10;56.60;;;;;;4911388;29;20178;-85
2023/01/13 01:37:38;;;;;;;4.63;1.63;;;18.10;57.10;;;;;;4911758;29;20183;-85
2023/01/13 01:40:12;;;;;;;5.00;2.30;;;18.20;56.60;;;;;;4896203;29;20721;-85
2023/01/13 01:45:34;;;;;;;5.78;1.83;;;18.20;56.60;;;;;;4917564;29;20183;-85
2023/01/13 01:48:01;;;;;;;3.97;1.80;;;18.20;56.60;;;;;;4899622;29;20209;-85
2023/01/13 01:50:30;;;;;;;5.22;1.90;;;18.10;56.40;;;;;;4899709;29;20217;-85
2023/01/13 01:52:59;;;;;;;3.55;1.77;;;18.20;56.40;;;;;;4899844;29;20194;-85
2023/01/13 01:55:29;;;;;;;3.47;2.20;;;18.20;56.40;;;;;;4899869;29;20182;-85
2023/01/13 01:58:03;;;;;;;2.10;1.90;;;18.20;56.50;;;;;;4930731;28;20245;-85
2023/01/13 02:00:34;;;;;;;2.47;1.75;;;18.10;56.60;;;;;;4942408;28;20160;-85
2023/01/13 02:03:07;;;;;;;3.78;2.05;;;18.10;56.40;;;;;;4973004;28;20164;-85
2023/01/13 02:05:35;;;;;;;2.10;1.85;;;18.20;56.40;;;;;;4956806;28;20281;-85
2023/01/13 02:08:05;;;;;;;2.03;1.63;;;18.20;56.30;;;;;;4941281;28;20231;-85
2023/01/13 02:10:42;;;;;;;3.40;1.70;;;18.20;56.10;;;;;;4972595;28;20145;-86
2023/01/13 02:13:12;;;;;;;2.35;1.58;;;18.20;56.10;;;;;;4957426;28;20169;-85
2023/01/13 02:15:46;;;;;;;2.83;1.98;;;18.30;56.20;;;;;;4915151;29;20242;-85
2023/01/13 02:18:34;;;;;;;3.75;2.00;;;18.20;56.10;;;;;;4884064;29;20222;-85
2023/01/13 02:21:23;;;;;;;3.95;1.83;;;18.20;56.10;;;;;;4914735;29;20175;-85
2023/01/13 02:27:25;;;;;;;3.70;1.85;;;18.20;56.20;;;;;;4929622;29;20305;-85
2023/01/13 02:33:08;;;;;;;3.35;1.67;;;18.20;56.30;;;;;;4916868;29;20229;-85
2023/01/13 02:35:58;;;;;;;2.38;1.70;;;18.20;56.20;;;;;;4914999;29;20213;-85
2023/01/13 02:38:31;;;;;;;3.05;1.77;;;18.20;56.30;;;;;;4914591;29;20166;-85
2023/01/13 02:44:05;;;;;;;2.95;1.70;;;18.20;56.40;;;;;;4883498;29;20210;-85
2023/01/13 02:44:05;;;;;;;4.03;1.70;;;18.20;56.20;;;;;;4917408;29;20191;-85
2023/01/13 02:46:50;;;;;;;2.55;1.77;;;18.20;56.10;;;;;;4906239;29;20190;-85
2023/01/13 02:49:25;;;;;;;2.90;1.88;;;18.30;56.10;;;;;;4953068;29;20192;-85
2023/01/13 02:51:53;;;;;;;3.85;2.00;;;18.20;56.30;;;;;;4922479;28;20188;-85
2023/01/13 02:54:24;;;;;;;2.88;1.83;;;18.20;56.30;;;;;;4936518;29;20154;-85
2023/01/13 02:56:52;;;;;;;2.60;1.77;;;18.20;56.40;;;;;;4921441;29;20285;-85
2023/01/13 02:59:18;;;;;;;3.75;1.88;;;18.20;56.30;;;;;;4921426;29;20197;-85
2023/01/13 03:01:46;;;;;;;3.80;1.80;;;18.20;57.00;;;;;;4921389;29;20181;-85
2023/01/13 03:04:48;;;;;;;1.80;1.67;;;18.20;56.20;;;;;;4921072;29;20179;-85
2023/01/13 03:07:48;;;;;;;2.53;1.70;;;18.20;56.30;;;;;;4952630;29;20172;-85
2023/01/13 03:10:27;;;;;;;4.20;1.88;;;18.20;56.30;;;;;;4940869;29;20211;-85
2023/01/13 03:13:12;;;;;;;2.78;1.98;;;18.20;56.40;;;;;;4921948;29;20627;-85
2023/01/13 03:16:18;;;;;;;2.60;1.70;;;18.10;56.40;;;;;;4952577;29;20154;-85
2023/01/13 03:19:08;;;;;;;3.50;2.00;;;18.10;56.40;;;;;;4952618;29;20196;-85
2023/01/13 03:22:08;;;;;;;2.50;1.67;;;18.10;56.50;;;;;;4938568;29;20250;-85
2023/01/13 03:24:43;;;;;;;3.50;1.77;;;18.10;56.50;;;;;;4952751;29;20178;-85
2023/01/13 03:27:26;;;;;;;5.05;1.70;;;18.10;56.40;;;;;;4923252;29;20609;-85
2023/01/13 03:30:08;;;;;;;2.58;1.90;;;18.10;56.40;;;;;;4922034;29;20189;-85
2023/01/13 03:32:41;;;;;;;2.80;1.77;;;18.10;56.40;;;;;;4947213;29;20309;-85
2023/01/13 03:35:22;;;;;;;3.72;1.58;;;18.10;56.60;;;;;;4936463;29;20150;-85
2023/01/13 03:37:53;;;;;;;5.20;1.60;;;18.10;56.50;;;;;;4937286;29;20150;-85
2023/01/13 03:40:22;;;;;;;2.95;1.80;;;18.10;56.60;;;;;;4920761;29;20165;-85
2023/01/13 03:45:49;;;;;;;3.63;1.80;;;18.00;56.60;;;;;;4895889;29;20595;-85
2023/01/13 03:48:16;;;;;;;2.67;2.00;;;18.00;56.50;;;;;;4862547;29;20233;-85
2023/01/13 03:50:59;;;;;;;3.90;1.73;;;18.00;56.40;;;;;;4878890;29;20219;-85
2023/01/13 03:53:38;;;;;;;2.85;1.67;;;18.10;56.60;;;;;;4863695;29;20235;-85
2023/01/13 03:56:11;;;;;;;1.75;1.58;;;18.10;56.50;;;;;;4894247;29;20163;-85
2023/01/13 03:58:45;;;;;;;2.53;1.70;;;18.10;56.60;;;;;;4878297;29;20218;-85
2023/01/13 04:01:17;;;;;;;2.15;1.60;;;18.00;56.60;;;;;;4895256;29;20177;-85
2023/01/13 04:03:57;;;;;;;6.63;1.65;;;18.00;56.70;;;;;;4865980;29;20195;-85
2023/01/13 04:06:38;;;;;;;5.55;1.77;;;18.00;56.60;;;;;;4882599;29;20183;-85
2023/01/13 04:09:27;;;;;;;2.65;1.90;;;18.00;56.70;;;;;;4895445;29;20219;-85
2023/01/13 04:12:10;;;;;;;2.22;1.67;;;18.00;56.70;;;;;;4880459;29;20591;-85
2023/01/13 04:14:44;;;;;;;4.80;2.03;;;18.00;56.70;;;;;;4942143;29;20182;-85
2023/01/13 04:17:14;;;;;;;3.63;1.75;;;18.00;56.80;;;;;;4935520;29;20169;-85
2023/01/13 04:19:46;;;;;;;2.10;1.63;;;18.00;56.60;;;;;;4935018;29;20184;-85
2023/01/13 04:22:12;;;;;;;4.18;1.60;;;18.00;56.60;;;;;;4935632;29;20169;-85
2023/01/13 04:24:38;;;;;;;3.33;1.67;;;18.00;56.70;;;;;;4919552;29;20181;-85
2023/01/13 04:27:05;;;;;;;2.92;1.83;;;18.00;56.70;;;;;;4935085;29;20177;-85
2023/01/13 04:29:33;;;;;;;3.03;1.60;;;18.00;56.60;;;;;;4934693;29;20208;-85
2023/01/13 04:31:59;;;;;;;3.67;1.80;;;18.00;56.80;;;;;;4942811;28;20232;-85
2023/01/13 04:34:36;;;;;;;2.25;1.73;;;17.90;56.80;;;;;;4938510;28;20174;-85
2023/01/13 04:37:03;;;;;;;3.50;2.00;;;18.00;56.80;;;;;;4938320;28;20187;-85
2023/01/13 04:39:33;;;;;;;4.13;2.00;;;17.90;56.70;;;;;;4938369;28;20168;-85
2023/01/13 04:42:02;;;;;;;2.25;1.40;;;17.90;56.80;;;;;;4953042;28;20165;-85
2023/01/13 04:44:30;;;;;;;2.00;1.42;;;18.00;57.40;;;;;;4938586;28;20563;-85
2023/01/13 04:47:01;;;;;;;2.38;1.90;;;17.90;56.80;;;;;;4938824;28;20236;-85
2023/01/13 04:49:27;;;;;;;3.47;1.70;;;17.90;56.70;;;;;;4969699;28;20192;-85
2023/01/13 04:51:53;;;;;;;3.33;1.63;;;18.00;56.90;;;;;;4953821;28;20165;-85
2023/01/13 04:54:22;;;;;;;3.47;1.90;;;17.90;56.80;;;;;;4895196;29;20241;-85
2023/01/13 04:56:48;;;;;;;2.30;1.75;;;17.90;56.90;;;;;;4896210;29;20214;-85
2023/01/13 04:59:14;;;;;;;2.65;1.90;;;17.90;56.90;;;;;;4895622;29;20190;-86
2023/01/13 05:01:44;;;;;;;2.97;1.48;;;17.90;56.80;;;;;;4896362;29;20181;-85
2023/01/13 05:04:14;;;;;;;1.85;1.33;;;17.90;57.00;;;;;;4896282;29;20187;-85
2023/01/13 05:06:48;;;;;;;4.43;1.85;;;17.90;56.90;;;;;;4896356;29;20174;-85
2023/01/13 05:09:18;;;;;;;2.45;1.45;;;17.90;56.90;;;;;;4911983;29;20296;-84
2023/01/13 05:17:03;;;;;;;1.95;1.42;;;17.90;56.90;;;;;;4915136;29;20230;-85
2023/01/13 05:19:33;;;;;;;2.92;1.90;;;17.90;57.00;;;;;;4899954;29;20201;-84
2023/01/13 05:27:39;;;;;;;1.80;1.58;;;17.80;57.00;;;;;;4960940;28;20172;-85
2023/01/13 05:30:06;;;;;;;3.65;2.10;;;17.80;56.80;;;;;;4958451;28;20184;-85
2023/01/13 05:32:32;;;;;;;3.42;1.65;;;17.90;57.00;;;;;;4899184;29;20238;-85
2023/01/13 05:35:04;;;;;;;4.30;1.85;;;17.90;57.00;;;;;;4899360;29;20194;-85
2023/01/13 05:37:32;;;;;;;1.55;1.42;;;17.90;57.00;;;;;;4899749;29;20209;-85
2023/01/13 05:45:45;;;;;;;3.25;1.83;;;17.90;57.20;;;;;;4916147;29;20174;-85
2023/01/13 05:48:11;;;;;;;2.22;1.60;;;17.90;57.10;;;;;;4899461;29;20203;-85
2023/01/13 05:50:37;;;;;;;3.00;1.60;;;17.80;57.10;;;;;;4898676;29;20215;-85
2023/01/13 05:53:09;;;;;;;2.30;1.73;;;17.80;57.10;;;;;;4899449;29;20182;-84
2023/01/13 05:55:39;;;;;;;2.15;1.88;;;17.80;57.20;;;;;;4899559;29;20199;-85
2023/01/13 05:58:09;;;;;;;2.00;1.40;;;17.80;57.30;;;;;;4898960;29;20170;-85
2023/01/13 06:00:37;;;;;;;3.05;2.05;;;17.80;57.20;;;;;;4898817;29;20193;-85
2023/01/13 06:03:04;;;;;;;1.52;1.30;;;17.80;57.30;;;;;;4898610;29;20223;-85
2023/01/13 06:05:32;;;;;;;3.15;1.60;;;17.80;57.40;;;;;;4899097;29;20174;-85
2023/01/13 06:08:01;;;;;;;4.35;1.58;;;17.80;57.30;;;;;;4897691;29;20191;-85
2023/01/13 06:10:34;;;;;;;1.98;1.60;;;17.80;57.50;;;;;;4898075;29;20234;-85
2023/01/13 06:13:01;;;;;;;3.78;1.52;;;17.70;57.40;;;;;;4898569;29;20197;-85
2023/01/13 06:15:30;;;;;;;1.73;1.50;;;17.80;57.60;;;;;;4902282;28;20173;-86
2023/01/13 06:18:04;;;;;;;3.60;1.70;;;17.70;57.50;;;;;;4954392;28;20173;-85
2023/01/13 06:20:30;;;;;;;2.55;1.60;;;17.70;57.60;;;;;;4969204;28;20226;-85
2023/01/13 06:22:57;;;;;;;3.53;1.90;;;17.70;57.30;;;;;;4953818;28;20264;-85
2023/01/13 06:25:48;;;;;;;1.92;1.60;;;17.70;57.40;;;;;;4970153;28;20161;-85
2023/01/13 06:28:25;;;;;;;2.03;1.50;;;17.70;57.40;;;;;;4955526;28;20200;-85
2023/01/13 06:30:56;;;;;;;2.67;1.42;;;17.70;57.60;;;;;;4930652;29;20178;-85
2023/01/13 06:33:27;;;;;;;2.65;1.58;;;17.70;57.60;;;;;;4946647;29;20202;-85
2023/01/13 06:35:57;;;;;;;1.63;1.48;;;17.70;57.50;;;;;;4930406;29;20246;-85
2023/01/13 06:38:24;;;;;;;3.53;1.50;;;17.60;57.50;;;;;;4930181;29;20167;-85
2023/01/13 06:40:51;;;;;;;2.55;1.55;;;17.70;57.60;;;;;;4930364;29;20171;-85
2023/01/13 06:43:23;;;;;;;2.63;1.80;;;17.60;57.60;;;;;;4914532;29;20680;-85
2023/01/13 06:45:52;;;;;;;1.92;1.60;;;17.70;57.60;;;;;;4945919;29;20163;-85
2023/01/13 06:48:23;;;;;;;2.30;1.60;;;17.70;57.60;;;;;;4929960;29;20265;-85
2023/01/13 06:50:59;;;;;;;1.75;1.50;;;17.70;57.60;;;;;;4930369;29;20199;-85
2023/01/13 06:53:24;;;;;;;2.75;1.63;;;17.70;57.70;;;;;;4898749;29;20217;-85
2023/01/13 06:55:59;;;;;;;2.50;1.70;;;17.70;57.60;;;;;;4914696;29;20187;-85
2023/01/13 06:58:25;;;;;;;3.70;1.65;;;17.70;57.60;;;;;;4932692;29;20180;-85
2023/01/13 07:01:05;;;;;;;1.75;1.20;;;17.70;57.60;;;;;;4949414;29;20170;-85
2023/01/13 07:03:32;;;;;;;3.00;1.65;;;17.70;57.60;;;;;;4920645;29;20191;-86
2023/01/13 07:06:06;;;;;;;3.47;1.73;;;17.70;57.60;;;;;;4889936;29;20206;-86
2023/01/13 07:08:35;;;;;;;2.38;1.45;;;17.60;57.50;;;;;;4892070;29;20214;-85
2023/01/13 07:11:01;;;;;;;1.92;1.60;;;17.60;57.60;;;;;;4910514;29;20561;-85
2023/01/13 07:16:13;;;;;;;2.72;1.80;;;17.70;57.60;;;;;;4909294;29;20194;-84
2023/01/13 07:18:40;;;;;;;2.67;1.60;;;17.70;57.60;;;;;;4892075;29;20297;-85
2023/01/13 07:21:09;;;;;;;2.15;1.55;;;17.70;57.60;;;;;;4860752;29;20220;-84
2023/01/13 07:23:37;;;;;;;5.53;1.63;;;17.60;57.40;;;;;;4859823;29;20297;-85
2023/01/13 07:26:04;;;;;;;2.10;1.60;;;17.60;57.50;;;;;;4861032;29;20188;-84
2023/01/13 07:28:30;;;;;;;2.22;1.80;;;17.60;57.70;;;;;;4864768;29;20271;-84
2023/01/13 07:30:56;;;;;;;3.65;1.70;;;17.60;57.60;;;;;;4856015;29;20165;-83
2023/01/13 07:33:21;;;;;;;2.40;1.50;;;17.60;57.50;;;;;;4872296;29;20714;-83
2023/01/13 07:35:47;;;;;;;2.72;1.70;;;17.70;57.40;;;;;;4905785;29;20179;-84
2023/01/13 07:38:15;;;;;;;2.50;1.60;;;17.70;57.30;;;;;;4889101;29;20190;-82
2023/01/13 07:40:41;;;;;;;2.05;1.40;;;17.80;56.90;;;;;;4888702;29;20638;-83
2023/01/13 07:45:57;;;;;;;2.70;1.63;;;17.90;56.30;;;;;;4919694;29;20189;-83
2023/01/13 07:48:23;;;;;;;2.45;1.40;;;18.00;56.10;;;;;;4921987;29;20239;-83
2023/01/13 07:50:49;;;;;;;1.52;1.30;;;18.00;56.10;;;;;;4891516;29;20163;-83
2023/01/13 07:53:15;;;;;;;3.40;1.45;;;18.00;56.20;;;;;;4893552;29;20182;-83
2023/01/13 07:55:41;;;;;;;1.98;1.40;;;18.00;55.90;;;;;;4910872;29;20165;-83
2023/01/13 07:58:08;;;;;;;2.35;1.40;;;18.10;56.00;;;;;;4910877;29;20158;-83
2023/01/13 08:00:36;;;;;;;2.25;1.50;;;18.10;55.70;;;;;;4911213;29;20239;-82
2023/01/13 08:03:01;;;;;;;2.17;1.40;;;18.10;55.60;;;;;;4910725;29;20541;-83
2023/01/13 08:05:28;;;;;;;2.78;1.50;;;18.10;55.70;;;;;;4911443;29;20166;-83
2023/01/13 08:07:54;;;;;;;1.70;1.42;;;18.20;55.40;;;;;;4914556;28;20177;-83
2023/01/13 08:10:19;;;;;;;1.48;1.35;;;18.20;55.50;;;;;;4949055;28;20245;-82
2023/01/13 08:15:33;;;;;;;3.30;1.48;;;18.20;55.20;;;;;;4953189;28;20157;-83
2023/01/13 08:17:59;;;;;;;2.03;1.40;;;18.20;55.70;;;;;;4931075;28;20189;-83
2023/01/13 08:20:26;;;;;;;3.05;1.30;;;18.20;55.30;;;;;;4947993;28;20612;-84
2023/01/13 08:22:56;;;;;;;2.10;1.20;;;18.20;55.20;;;;;;4967361;28;20161;-83
2023/01/13 08:25:24;;;;;;;0.95;0.90;;;18.20;55.30;;;;;;4954780;28;20677;-84
2023/01/13 08:27:51;;;;;;;2.22;1.40;;;18.10;55.20;;;;;;4953451;28;20239;-84
2023/01/13 08:30:16;;;;;;;1.70;1.30;;;18.20;55.40;;;;;;4968150;28;20219;-83
2023/01/13 08:32:44;;;;;;;1.60;1.17;;;18.20;55.40;;;;;;4950206;28;20683;-83
2023/01/13 08:35:11;;;;;;;2.67;1.50;;;18.20;55.20;;;;;;4969843;28;20168;-85
2023/01/13 08:37:37;;;;;;;2.58;1.42;;;18.20;55.30;;;;;;4949152;28;20160;-84
2023/01/13 08:40:03;;;;;;;2.92;1.40;;;18.20;55.30;;;;;;4963936;28;20161;-84
2023/01/13 08:42:29;;;;;;;1.83;1.30;;;18.30;55.50;;;;;;4948337;28;20185;-84
2023/01/13 08:44:56;;;;;;;1.20;1.10;;;18.20;55.70;;;;;;4947578;28;20172;-84
2023/01/13 08:47:26;;;;;;;2.72;1.30;;;18.30;55.60;;;;;;4947386;28;20638;-84
2023/01/13 08:49:52;;;;;;;1.42;1.17;;;18.30;55.40;;;;;;4963895;28;20282;-84
2023/01/13 08:52:18;;;;;;;1.55;1.27;;;18.20;55.20;;;;;;4979524;28;20234;-84
2023/01/13 08:54:44;;;;;;;1.45;1.10;;;18.30;55.30;;;;;;4963765;28;20160;-84
2023/01/13 08:57:09;;;;;;;1.65;1.20;;;18.30;55.30;;;;;;4962241;28;20170;-84
2023/01/13 08:59:35;;;;;;;3.10;1.65;;;18.30;55.20;;;;;;4962587;28;20694;-83
2023/01/13 09:02:02;;;;;;;2.22;1.17;;;18.30;55.40;;;;;;4962589;28;20170;-83
2023/01/13 09:04:27;;;;;;;1.52;1.10;;;18.20;55.20;;;;;;4946038;28;20164;-83
2023/01/13 09:06:57;;;;;;;1.40;1.17;;;18.30;55.40;;;;;;4963391;28;20160;-84
2023/01/13 09:09:26;;;;;;;1.45;1.10;;;18.20;55.30;;;;;;4968448;28;20203;-83
2023/01/13 09:14:34;;;;;;;2.78;1.08;;;18.30;55.40;;;;;;4982938;28;20167;-83
2023/01/13 09:17:00;;;;;;;1.50;1.20;;;18.30;55.20;;;;;;4965288;28;20640;-83
2023/01/13 09:19:27;;;;;;;1.60;1.15;;;18.30;55.30;;;;;;4980536;28;20207;-83
2023/01/13 09:21:55;;;;;;;1.83;1.30;;;18.20;55.20;;;;;;4965613;28;20164;-83
2023/01/13 09:24:21;;;;;;;1.15;1.05;;;18.30;54.80;;;;;;4965393;28;20160;-83
2023/01/13 09:26:52;;;;;;;1.55;1.00;;;18.30;55.50;;;;;;4975376;28;20172;-84
2023/01/13 09:29:18;;;;;;;1.83;1.20;;;18.20;55.10;;;;;;4995601;28;20188;-83
2023/01/13 09:31:43;;;;;;;1.95;1.25;;;18.20;55.10;;;;;;4963317;28;20278;-83
2023/01/13 09:36:52;;;;;;;2.08;1.08;;;18.30;55.10;;;;;;4980814;28;20156;-84
2023/01/13 09:39:17;;;;;;;2.22;1.00;;;18.30;54.80;;;;;;4978245;28;20231;-84
2023/01/13 09:45:04;;;;;;;1.45;0.98;;;18.30;55.10;;;;;;4994965;28;20608;-84
2023/01/13 09:47:34;;;;;;;1.52;1.10;;;18.30;55.10;;;;;;4995622;28;20184;-84
2023/01/13 09:50:16;;;;;;;2.50;1.42;;;18.30;55.10;;;;;;4978166;28;20208;-83
2023/01/13 09:52:44;;;;;;;2.53;1.10;;;18.30;55.00;;;;;;4994890;28;20159;-84
2023/01/13 09:55:23;;;;;;;1.75;0.95;;;18.40;54.60;;;;;;4978726;28;20187;-84
2023/01/13 09:57:49;;;;;;;1.98;0.80;;;18.40;55.00;;;;;;4979987;28;20187;-84
2023/01/13 10:00:21;;;;;;;2.85;0.98;;;18.40;54.50;;;;;;4995063;28;20619;-84
2023/01/13 10:03:26;;;;;;;2.05;1.00;;;18.40;54.30;;;;;;4964440;28;20259;-84
2023/01/13 10:05:59;;;;;;;2.65;1.05;;;18.40;54.90;;;;;;4998739;28;20262;-83
2023/01/13 10:08:28;;;;;;;2.22;0.93;;;18.40;54.90;;;;;;4965543;28;20199;-83
2023/01/13 10:10:57;;;;;;;3.47;1.20;;;18.40;54.60;;;;;;4999429;28;20164;-84
2023/01/13 10:13:28;;;;;;;2.45;1.10;;;18.40;54.60;;;;;;4983445;28;20172;-84
2023/01/13 10:16:06;;;;;;;6.95;1.42;;;18.40;54.70;;;;;;4982033;28;20164;-84
2023/01/13 10:18:54;;;;;;;5.57;1.30;;;18.40;54.60;;;;;;4985435;28;20171;-83
2023/01/13 10:21:56;;;;;;;11.10;1.25;;;18.40;55.00;;;;;;4987987;28;20164;-83
2023/01/13 10:24:49;;;;;;;10.25;1.65;;;18.40;55.00;;;;;;4988061;28;20168;-83
2023/01/13 10:27:34;;;;;;;10.45;1.60;;;18.50;54.80;;;;;;4999339;28;20161;-83
2023/01/13 10:30:32;;;;;;;9.20;1.23;;;18.40;55.00;;;;;;4960707;28;20213;-83
2023/01/13 10:33:01;;;;;;;8.35;1.40;;;18.40;54.60;;;;;;4962095;28;20228;-83
2023/01/13 10:36:01;;;;;;;9.00;1.58;;;18.40;54.60;;;;;;4929098;28;20169;-83
2023/01/13 10:38:35;;;;;;;9.05;1.30;;;18.50;54.80;;;;;;4942014;29;20186;-84
2023/01/13 10:41:02;;;;;;;9.73;1.42;;;18.40;54.50;;;;;;4912144;29;20290;-84
2023/01/13 10:43:28;;;;;;;3.05;1.10;;;18.50;54.50;;;;;;4926583;29;20541;-83
2023/01/13 10:45:59;;;;;;;5.70;1.30;;;18.50;54.50;;;;;;4926449;29;20651;-83
2023/01/13 10:48:37;;;;;;;7.35;1.60;;;18.40;54.80;;;;;;4926827;29;20260;-83
2023/01/13 10:51:36;;;;;;;8.02;1.38;;;18.40;55.00;;;;;;4959725;29;20188;-83
2023/01/13 10:54:21;;;;;;;7.40;1.52;;;18.40;55.60;;;;;;4930249;29;20277;-85
2023/01/13 10:56:49;;;;;;;4.40;1.27;;;18.40;54.70;;;;;;4921020;29;20196;-84
2023/01/13 10:59:23;;;;;;;11.13;1.25;;;18.50;54.80;;;;;;4918624;29;20189;-84
2023/01/13 11:02:00;;;;;;;3.72;1.25;;;18.40;54.70;;;;;;4981879;28;20227;-84
2023/01/13 11:04:33;;;;;;;5.20;1.08;;;18.50;54.70;;;;;;4973165;28;20234;-85
2023/01/13 11:07:02;;;;;;;6.25;1.35;;;18.50;55.00;;;;;;4977645;28;20232;-84
2023/01/13 11:09:29;;;;;;;10.82;1.42;;;18.40;54.70;;;;;;4939654;28;20332;-84
2023/01/13 11:11:56;;;;;;;8.10;1.50;;;18.50;54.80;;;;;;4971434;28;20188;-85
2023/01/13 11:14:38;;;;;;;5.00;1.20;;;18.50;55.00;;;;;;4971946;28;20173;-85
2023/01/13 11:17:13;;;;;;;3.53;1.17;;;18.40;55.00;;;;;;4971737;28;20161;-85
2023/01/13 11:19:42;;;;;;;3.92;1.10;;;18.40;55.00;;;;;;4970512;28;20184;-85
2023/01/13 11:22:19;;;;;;;6.93;1.48;;;18.40;54.80;;;;;;4955409;28;20177;-85
2023/01/13 11:24:52;;;;;;;6.28;1.00;;;18.40;55.50;;;;;;4955423;28;20235;-85
2023/01/13 11:27:24;;;;;;;2.03;1.00;;;18.50;54.90;;;;;;4970827;28;20196;-85
2023/01/13 11:30:16;;;;;;;6.45;1.10;;;18.40;54.60;;;;;;4958770;28;20551;-85
2023/01/13 11:32:57;;;;;;;2.88;1.00;;;18.50;55.20;;;;;;5007137;28;20220;-85
2023/01/13 11:35:24;;;;;;;1.92;1.20;;;18.50;54.90;;;;;;4990445;28;20152;-84
2023/01/13 11:37:53;;;;;;;1.05;0.93;;;18.40;55.10;;;;;;4971591;28;20175;-84
2023/01/13 11:40:30;;;;;;;2.35;0.90;;;18.50;54.80;;;;;;4957408;28;20195;-84
2023/01/13 11:43:11;;;;;;;7.50;1.13;;;18.50;54.80;;;;;;4974490;28;20164;-84
2023/01/13 11:45:41;;;;;;;2.85;1.00;;;18.50;55.00;;;;;;4974931;28;20161;-84
2023/01/13 11:48:11;;;;;;;1.98;0.77;;;18.50;54.90;;;;;;4959152;28;20211;-84
2023/01/13 11:50:41;;;;;;;1.13;0.70;;;18.50;54.80;;;;;;4990812;28;20171;-83
2023/01/13 11:53:17;;;;;;;1.77;0.80;;;18.50;55.00;;;;;;4958571;28;20172;-84
2023/01/13 11:56:15;;;;;;;2.80;1.20;;;18.50;54.90;;;;;;4989591;28;20160;-84
2023/01/13 11:59:05;;;;;;;2.05;0.70;;;18.50;54.60;;;;;;5004683;28;20164;-85
2023/01/13 12:01:46;;;;;;;3.17;1.13;;;18.50;54.70;;;;;;4991967;28;20215;-84
2023/01/13 12:04:39;;;;;;;2.47;0.85;;;18.50;54.90;;;;;;4989319;28;20159;-84
2023/01/13 12:07:13;;;;;;;1.48;0.80;;;18.50;55.00;;;;;;4959561;28;20542;-84
2023/01/13 12:09:47;;;;;;;2.90;0.80;;;18.50;54.70;;;;;;4958967;28;20249;-84
2023/01/13 12:12:35;;;;;;;2.72;0.80;;;18.50;55.00;;;;;;4958654;28;20159;-84
2023/01/13 12:15:27;;;;;;;1.80;1.13;;;18.50;55.00;;;;;;4974872;28;20160;-84
2023/01/13 12:18:33;;;;;;;3.33;0.90;;;18.50;55.00;;;;;;4973980;28;20191;-85
2023/01/13 12:21:17;;;;;;;1.30;0.90;;;18.40;54.80;;;;;;4989498;28;20164;-85
2023/01/13 12:24:00;;;;;;;4.13;0.80;;;18.50;54.90;;;;;;4958496;28;20596;-85
2023/01/13 12:26:30;;;;;;;2.72;0.88;;;18.50;54.90;;;;;;4971784;28;20210;-85
2023/01/13 12:28:59;;;;;;;2.70;0.95;;;18.50;55.10;;;;;;4969548;28;20286;-85
2023/01/13 12:31:25;;;;;;;1.73;0.93;;;18.50;55.00;;;;;;4967558;28;20259;-85
2023/01/13 12:34:21;;;;;;;0.75;0.68;;;18.50;55.10;;;;;;4953454;28;20180;-84
2023/01/13 12:36:56;;;;;;;3.70;1.13;;;18.50;55.00;;;;;;4972917;28;20175;-85
2023/01/13 12:39:27;;;;;;;1.17;0.77;;;18.50;54.90;;;;;;4951128;28;20175;-85
2023/01/13 12:45:15;;;;;;;1.35;0.80;;;18.50;55.00;;;;;;4974273;28;20170;-86
2023/01/13 12:47:42;;;;;;;0.77;0.77;;;18.50;55.10;;;;;;4973001;28;20187;-85
2023/01/13 12:50:35;;;;;;;2.20;0.75;;;18.50;54.90;;;;;;4948833;29;20220;-85
2023/01/13 12:53:31;;;;;;;1.40;0.70;;;18.50;54.80;;;;;;4920433;29;20177;-83
2023/01/13 12:56:19;;;;;;;1.65;0.80;;;18.50;55.00;;;;;;4920770;29;20222;-84
2023/01/13 12:58:45;;;;;;;0.90;0.75;;;18.50;54.90;;;;;;4914032;29;20256;-85
2023/01/13 13:01:15;;;;;;;1.73;0.80;;;18.50;54.80;;;;;;4914792;29;20166;-84
2023/01/13 13:03:41;;;;;;;1.02;0.60;;;18.50;54.80;;;;;;4914194;29;20198;-84
2023/01/13 13:06:13;;;;;;;1.85;0.70;;;18.60;54.80;;;;;;4929735;29;20188;-84
2023/01/13 13:08:45;;;;;;;1.02;0.63;;;18.60;54.60;;;;;;4948437;29;20189;-83
2023/01/13 13:14:02;;;;;;;2.10;0.75;;;18.60;54.70;;;;;;4949835;29;20153;-84
2023/01/13 13:16:29;;;;;;;4.97;0.90;;;18.50;54.60;;;;;;4932701;29;20178;-82
2023/01/13 13:19:34;;;;;;;1.10;0.70;;;18.50;54.80;;;;;;4943437;29;20249;-85
2023/01/13 13:22:35;;;;;;;0.90;0.70;;;18.50;54.80;;;;;;4968101;28;20183;-83
2023/01/13 13:25:02;;;;;;;1.05;0.73;;;18.50;54.70;;;;;;4961060;28;20191;-81
2023/01/13 13:27:40;;;;;;;1.25;0.77;;;18.50;54.80;;;;;;4986344;28;20191;-85
2023/01/13 13:30:16;;;;;;;1.05;0.60;;;18.50;54.80;;;;;;4952308;28;20195;-85
2023/01/13 13:33:07;;;;;;;1.40;0.80;;;18.50;54.80;;;;;;4985667;28;20678;-84
2023/01/13 13:35:55;;;;;;;1.08;0.70;;;18.50;54.80;;;;;;4970813;28;20176;-84
2023/01/13 13:46:56;;;;;;;1.23;0.60;;;18.50;54.80;;;;;;4981550;28;20156;-84
2023/01/13 13:49:37;;;;;;;0.88;0.68;;;18.50;54.70;;;;;;4960102;28;20203;-85
2023/01/13 13:52:09;;;;;;;1.20;0.60;;;18.50;54.60;;;;;;4960766;28;20175;-83
2023/01/13 13:54:38;;;;;;;0.68;0.60;;;18.50;54.40;;;;;;4976385;28;20164;-86
2023/01/13 13:57:04;;;;;;;0.73;0.60;;;18.50;54.40;;;;;;4956253;28;20250;-85
2023/01/13 13:59:32;;;;;;;1.45;0.82;;;18.60;54.40;;;;;;4956904;28;20270;-85
2023/01/13 14:02:00;;;;;;;0.75;0.70;;;18.60;54.40;;;;;;4958454;28;20164;-84
2023/01/13 14:04:28;;;;;;;2.35;0.60;;;18.50;54.40;;;;;;4961264;28;20198;-84
2023/01/13 14:07:00;;;;;;;0.90;0.70;;;18.60;54.40;;;;;;4976246;28;20252;-85
2023/01/13 14:09:39;;;;;;;0.60;0.60;;;18.60;54.40;;;;;;4974706;28;20218;-85
2023/01/13 14:12:06;;;;;;;0.60;0.60;;;18.60;54.50;;;;;;4957489;28;20258;-84
2023/01/13 14:14:38;;;;;;;1.67;0.52;;;18.60;54.50;;;;;;4957941;28;20247;-85